createdAt,value
2022-07-29T00:04:42.881Z,74582.94
2022-07-29T00:14:47.733Z,74609.25
2022-07-29T00:24:53.238Z,74629.47
2022-07-29T00:35:19.997Z,74669.94
2022-07-29T00:45:23.346Z,74678.03
2022-07-29T00:55:28.717Z,74686.13
2022-07-29T01:05:49.966Z,74718.50
2022-07-29T01:15:58.504Z,74718.50
2022-07-29T01:26:24.484Z,74730.66
2022-07-29T01:36:35.517Z,74754.94
2022-07-29T01:46:40.000Z,74765.03
2022-07-29T01:56:43.896Z,74754.94
2022-07-29T02:06:50.831Z,74769.09
2022-07-29T02:16:58.019Z,74791.34
2022-07-29T02:27:03.672Z,74795.38
2022-07-29T02:37:10.760Z,74817.66
2022-07-29T02:47:21.850Z,74860.13
2022-07-29T02:57:27.527Z,74864.19
2022-07-29T03:07:29.919Z,74856.09
2022-07-29T03:17:35.107Z,74829.78
2022-07-29T03:27:37.227Z,74801.47
2022-07-29T03:37:39.296Z,74767.06
2022-07-29T03:47:51.132Z,74700.28
2022-07-29T03:57:56.709Z,74641.63
2022-07-29T04:08:03.751Z,74589.00
2022-07-29T04:18:06.941Z,74548.56
2022-07-29T04:28:09.579Z,74481.78
2022-07-29T04:38:15.590Z,74457.50
2022-07-29T04:48:19.287Z,74384.69
2022-07-29T04:58:28.493Z,74390.75
2022-07-29T05:08:30.604Z,74332.06
2022-07-29T05:18:32.577Z,74338.16
2022-07-29T05:28:36.172Z,74307.78
2022-07-29T05:38:38.555Z,74135.84
2022-07-29T05:48:40.736Z,74160.13
2022-07-29T05:58:45.435Z,74085.25
2022-07-29T06:08:47.530Z,73949.72
2022-07-29T06:18:49.611Z,73937.59
2022-07-29T06:28:51.794Z,73909.28
2022-07-29T06:38:54.052Z,73971.97
2022-07-29T06:48:56.183Z,73921.41
2022-07-29T06:58:58.486Z,73804.09
2022-07-29T07:09:00.482Z,73771.72
2022-07-29T07:19:02.619Z,73719.13
2022-07-29T07:29:09.449Z,73759.56
2022-07-29T07:39:11.668Z,73767.66
2022-07-29T07:49:13.854Z,73767.66
2022-07-29T07:59:18.474Z,73686.75
2022-07-29T08:09:29.156Z,73771.72
2022-07-29T08:19:32.244Z,73587.66
2022-07-29T08:29:34.313Z,73658.44
2022-07-29T08:39:42.495Z,73682.72
2022-07-29T08:49:48.312Z,73796.00
2022-07-29T08:59:51.487Z,73868.81
2022-07-29T09:10:01.751Z,73832.41
2022-07-29T09:20:18.315Z,73816.22
2022-07-29T09:30:28.298Z,73840.50
2022-07-29T09:40:38.529Z,73781.84
2022-07-29T09:50:42.479Z,73779.81
2022-07-29T10:00:46.982Z,73820.25
2022-07-29T10:10:49.329Z,73820.25
2022-07-29T10:20:51.830Z,73804.09
2022-07-29T10:31:06.998Z,73763.63
2022-07-29T10:41:32.027Z,73749.47
2022-07-29T10:51:57.534Z,73771.72
2022-07-29T11:02:27.681Z,73725.19
2022-07-29T11:12:37.332Z,73700.91
2022-07-29T11:22:42.968Z,73719.13
2022-07-29T11:32:48.956Z,73743.41
2022-07-29T11:42:53.513Z,73747.44
2022-07-29T11:52:59.425Z,73755.53
2022-07-29T12:03:05.222Z,73747.44
2022-07-29T12:13:12.460Z,73658.44
2022-07-29T12:23:18.858Z,73642.25
2022-07-29T12:33:25.991Z,73666.53
2022-07-29T12:43:28.136Z,73686.75
2022-07-29T12:53:30.315Z,73694.84
2022-07-29T13:03:57.626Z,73652.38
2022-07-29T13:14:05.672Z,73658.44
2022-07-29T13:24:08.458Z,73672.59
2022-07-29T13:34:13.706Z,73682.72
2022-07-29T13:44:18.010Z,73646.31
2022-07-29T13:54:21.825Z,73668.56
2022-07-29T14:04:26.705Z,73611.91
2022-07-29T14:14:32.771Z,73620.00
2022-07-29T14:24:39.513Z,73624.06
2022-07-29T14:34:43.892Z,73642.25
2022-07-29T14:44:45.957Z,73658.44
2022-07-29T14:54:49.579Z,73636.19
2022-07-29T15:04:51.639Z,73617.97
2022-07-29T15:14:54.146Z,73597.75
2022-07-29T15:24:59.000Z,73626.06
2022-07-29T15:35:06.002Z,73636.19
2022-07-29T15:45:11.120Z,73632.16
2022-07-29T15:55:13.210Z,73609.91
2022-07-29T16:05:15.297Z,73609.91
2022-07-29T16:15:20.359Z,73640.22
2022-07-29T16:25:38.364Z,73650.34
2022-07-29T16:35:45.509Z,73670.56
2022-07-29T16:45:47.701Z,73662.47
2022-07-29T16:55:49.741Z,73680.69
2022-07-29T17:05:54.257Z,73698.91
2022-07-29T17:16:00.253Z,73698.91
2022-07-29T17:26:03.665Z,73686.75
2022-07-29T17:36:27.034Z,73682.72
2022-07-29T17:46:31.568Z,73709.00
2022-07-29T17:56:36.186Z,73721.16
2022-07-29T18:06:40.377Z,73743.41
2022-07-29T18:16:45.362Z,73759.56
2022-07-29T18:26:49.908Z,73779.81
2022-07-29T18:36:51.950Z,73802.06
2022-07-29T18:46:59.052Z,73842.50
2022-07-29T18:57:02.499Z,73844.53
2022-07-29T19:07:27.106Z,73895.09
2022-07-29T19:17:29.147Z,73917.34
2022-07-29T19:27:31.686Z,73953.78
2022-07-29T19:37:33.785Z,73978.03
2022-07-29T19:47:40.474Z,73986.13
2022-07-29T19:57:42.714Z,74012.44
2022-07-29T20:07:49.930Z,74030.66
2022-07-29T20:17:57.366Z,74065.03
2022-07-29T20:28:02.035Z,74083.25
2022-07-29T20:38:07.204Z,74115.59
2022-07-29T20:48:10.684Z,74133.81
2022-07-29T20:58:18.076Z,74158.09
2022-07-29T21:08:22.750Z,74180.34
2022-07-29T21:18:28.266Z,74192.47
2022-07-29T21:28:35.937Z,74212.72
2022-07-29T21:38:39.357Z,74198.56
2022-07-29T21:48:44.547Z,74206.66
2022-07-29T21:58:47.986Z,74212.72
2022-07-29T22:08:50.123Z,74224.84
2022-07-29T22:18:54.650Z,74237.00
2022-07-29T22:28:56.629Z,74249.13
2022-07-29T22:39:05.847Z,74237.00
2022-07-29T22:49:10.351Z,74232.94
2022-07-29T22:59:12.411Z,74239.00
2022-07-29T23:09:14.424Z,74232.94
2022-07-29T23:19:18.530Z,74222.81
2022-07-29T23:29:25.195Z,74234.97
2022-07-29T23:39:29.459Z,74249.13
2022-07-29T23:49:31.562Z,74261.25
2022-07-29T23:59:35.947Z,74265.31
